Terminal Aerodrome Forecast
Issued by NWS

Home | Current Version | Previous Version | Text Only | Print | Product List | Glossary On
Versions: 1 2 3 4 5 6 7 8 9 10 11 12 13 14 15 16
431
FTAK31 PAJN 121750
TAFAGY
TAF
PAGY 121750Z 1218/1318 VRB04KT P6SM -SHRA OVC050
      TEMPO 1219/1222 21008KT P6SM -SHRA OVC050
     FM122200 21010G20KT P6SM VCSH BKN040 OVC050
     FM130600 21006KT P6SM VCSH OVC040
     FM131000 VRB03KT P6SM VCSH OVC050
     FM131500 04006KT P6SM OVC060
      AMD LTD TO CLD VIS AND WIND=

USA.gov is the U.S. government's official web portal to all federal, state and local government web resources and services.